Time;durP1;ratioP1;P1;durP2;ratioP2;P2;SDS_P1;SDS_P2;PMS_P1;PMS_P2;Temp;Humidity;BMP_temperature;BMP_pressure;BME280_temperature;BME280_humidity;BME280_pressure;Samples;Min_cycle;Max_cycle;Signal;HPM_P1;HPM_P2
2022/09/11 00:00:56;;;;;;;1.30;1.20;;;18.80;49.90;;;;;;5012973;28;20989;-69
2022/09/11 00:03:23;;;;;;;1.30;1.10;;;18.50;52.80;;;;;;5015844;28;20463;-69
2022/09/11 00:05:50;;;;;;;1.30;1.30;;;18.50;54.70;;;;;;5018878;28;20666;-69
2022/09/11 00:08:17;;;;;;;1.30;1.30;;;18.70;53.80;;;;;;5027824;28;20449;-70
2022/09/11 00:10:44;;;;;;;1.30;1.07;;;19.00;50.90;;;;;;5027702;28;21010;-71
2022/09/11 00:13:14;;;;;;;1.30;1.13;;;18.80;51.10;;;;;;5029403;28;20527;-70
2022/09/11 00:15:42;;;;;;;1.40;1.30;;;18.90;51.60;;;;;;5022952;28;20781;-70
2022/09/11 00:18:13;;;;;;;1.30;1.20;;;19.10;50.50;;;;;;5028209;28;20432;-69
2022/09/11 00:20:48;;;;;;;1.30;1.20;;;18.80;51.00;;;;;;5023822;28;20462;-69
2022/09/11 00:23:16;;;;;;;1.30;1.20;;;18.90;49.80;;;;;;5027746;28;20968;-70
2022/09/11 00:25:43;;;;;;;1.30;1.23;;;18.90;52.20;;;;;;5025731;28;20959;-69
2022/09/11 00:28:14;;;;;;;1.30;1.10;;;19.00;50.00;;;;;;5019291;28;20521;-69
2022/09/11 00:30:43;;;;;;;1.30;1.20;;;18.60;51.20;;;;;;5026989;28;20507;-70
2022/09/11 00:33:14;;;;;;;1.30;1.20;;;18.60;51.30;;;;;;5031890;28;20409;-69
2022/09/11 00:35:40;;;;;;;1.30;1.10;;;18.60;51.30;;;;;;5032496;28;20399;-70
2022/09/11 00:38:10;;;;;;;1.30;1.20;;;18.80;50.50;;;;;;5024117;28;20447;-69
2022/09/11 00:40:46;;;;;;;1.30;1.20;;;18.70;50.40;;;;;;5034304;28;20419;-69
2022/09/11 00:43:16;;;;;;;1.30;1.20;;;18.90;50.70;;;;;;5033572;28;20399;-69
2022/09/11 00:45:43;;;;;;;1.30;1.10;;;18.90;48.90;;;;;;5026712;28;20460;-72
2022/09/11 00:48:11;;;;;;;1.30;1.17;;;18.80;49.80;;;;;;5028889;28;20456;-69
2022/09/11 00:50:37;;;;;;;1.30;1.20;;;19.00;48.60;;;;;;5028613;28;20490;-69
2022/09/11 00:53:07;;;;;;;1.30;1.10;;;18.70;49.50;;;;;;5030367;28;20950;-69
2022/09/11 00:55:36;;;;;;;1.30;1.20;;;18.90;51.30;;;;;;5022523;28;20603;-70
2022/09/11 00:58:09;;;;;;;1.30;1.10;;;18.80;49.70;;;;;;5024940;28;20806;-69
2022/09/11 01:00:38;;;;;;;1.30;1.20;;;18.90;53.80;;;;;;5015847;28;20457;-69
2022/09/11 01:03:04;;;;;;;1.30;1.10;;;18.80;51.80;;;;;;5020938;28;20512;-69
2022/09/11 01:05:33;;;;;;;1.30;1.10;;;18.70;49.40;;;;;;5024592;28;20480;-69
2022/09/11 01:08:02;;;;;;;1.30;1.10;;;18.50;51.40;;;;;;5025294;28;20412;-70
2022/09/11 01:10:49;;;;;;;1.30;1.10;;;18.80;50.00;;;;;;5020969;28;20503;-69
2022/09/11 01:13:20;;;;;;;1.30;1.20;;;19.00;49.70;;;;;;5015083;28;20446;-71
2022/09/11 01:16:02;;;;;;;1.30;1.07;;;18.70;50.80;;;;;;5021927;28;20408;-69
2022/09/11 01:18:28;;;;;;;1.30;1.10;;;19.10;47.90;;;;;;4994190;28;20439;-69
2022/09/11 01:21:07;;;;;;;1.30;1.20;;;19.20;47.10;;;;;;5003188;28;20930;-69
2022/09/11 01:23:38;;;;;;;1.30;1.10;;;19.20;48.70;;;;;;5007502;28;20184;-69
2022/09/11 01:26:25;;;;;;;1.30;1.10;;;19.30;48.50;;;;;;5029818;28;20862;-72
2022/09/11 01:28:56;;;;;;;1.30;1.10;;;19.30;48.10;;;;;;5023208;28;20473;-70
2022/09/11 01:31:25;;;;;;;1.30;1.20;;;19.30;47.10;;;;;;5019855;28;20483;-70
2022/09/11 01:34:34;;;;;;;1.30;1.13;;;19.00;47.90;;;;;;5019097;28;20425;-70
2022/09/11 01:37:05;;;;;;;1.30;1.00;;;19.20;48.20;;;;;;5008735;28;20442;-70
2022/09/11 01:39:39;;;;;;;1.30;1.10;;;18.90;50.20;;;;;;5009810;28;20443;-69
2022/09/11 01:42:13;;;;;;;1.30;1.20;;;19.00;51.20;;;;;;5032102;28;20450;-69
2022/09/11 01:44:47;;;;;;;1.30;1.20;;;19.10;47.80;;;;;;5022181;28;20553;-69
2022/09/11 01:47:15;;;;;;;1.30;1.10;;;18.90;48.20;;;;;;5033035;22;21065;-68
2022/09/11 01:49:54;;;;;;;1.30;1.10;;;18.50;52.40;;;;;;4993193;28;20826;-68
2022/09/11 01:52:26;;;;;;;1.30;1.10;;;18.70;53.10;;;;;;4996137;28;20464;-68
2022/09/11 01:55:18;;;;;;;1.30;1.00;;;19.00;50.60;;;;;;4996232;28;20427;-68
2022/09/11 01:57:51;;;;;;;1.30;1.13;;;18.90;49.10;;;;;;4992300;28;20452;-68
2022/09/11 02:00:17;;;;;;;1.30;1.20;;;19.00;48.60;;;;;;4985959;28;20443;-68
2022/09/11 02:03:09;;;;;;;1.30;1.10;;;19.10;47.30;;;;;;4999170;28;20517;-68
2022/09/11 02:05:44;;;;;;;1.30;1.07;;;19.10;49.20;;;;;;5005225;28;20465;-68
2022/09/11 02:08:15;;;;;;;1.30;1.17;;;19.10;48.10;;;;;;4991691;28;20481;-68
2022/09/11 02:11:02;;;;;;;1.30;1.20;;;18.40;51.60;;;;;;4990904;28;20480;-68
2022/09/11 02:13:44;;;;;;;1.30;1.17;;;18.40;52.20;;;;;;4988570;28;20426;-68
2022/09/11 02:16:45;;;;;;;1.30;1.10;;;18.60;50.90;;;;;;4991593;28;20527;-69
2022/09/11 02:19:17;;;;;;;1.30;1.20;;;19.00;48.70;;;;;;4992473;28;20425;-68
2022/09/11 02:21:46;;;;;;;1.30;1.10;;;19.20;48.60;;;;;;4991709;28;20785;-68
2022/09/11 02:24:12;;;;;;;1.30;1.20;;;18.90;51.00;;;;;;4993882;28;20455;-68
2022/09/11 02:26:45;;;;;;;1.30;1.10;;;18.70;49.30;;;;;;4992042;28;21066;-68
2022/09/11 02:29:12;;;;;;;1.30;1.20;;;18.20;51.80;;;;;;4992160;28;20795;-68
2022/09/11 02:31:38;;;;;;;1.30;1.20;;;18.30;52.60;;;;;;4991942;28;20632;-68
2022/09/11 02:34:04;;;;;;;1.47;1.40;;;18.80;50.80;;;;;;4993224;28;20978;-67
2022/09/11 02:36:34;;;;;;;1.30;1.10;;;19.10;51.00;;;;;;4997096;28;20439;-66
2022/09/11 02:39:06;;;;;;;1.30;1.20;;;19.30;49.50;;;;;;4997847;28;20185;-67
2022/09/11 02:41:46;;;;;;;1.30;1.10;;;19.10;48.10;;;;;;4991132;28;20425;-68
2022/09/11 02:44:29;;;;;;;1.30;1.10;;;18.60;51.00;;;;;;4996145;28;20455;-68
2022/09/11 02:47:25;;;;;;;1.30;1.20;;;19.10;48.20;;;;;;4994914;28;20836;-68
2022/09/11 02:49:54;;;;;;;1.30;1.10;;;18.60;49.90;;;;;;4990988;28;20418;-68
2022/09/11 02:52:34;;;;;;;1.30;1.10;;;18.00;53.70;;;;;;5002670;28;20945;-68
2022/09/11 02:55:13;;;;;;;1.30;1.10;;;18.30;52.50;;;;;;4998190;28;20898;-68
2022/09/11 02:57:53;;;;;;;1.30;1.20;;;18.70;51.90;;;;;;4993922;28;21062;-68
2022/09/11 03:00:19;;;;;;;1.30;1.20;;;19.00;50.00;;;;;;4980789;28;20783;-68
2022/09/11 03:02:46;;;;;;;1.30;1.10;;;18.60;52.30;;;;;;4987981;28;20420;-68
2022/09/11 03:05:12;;;;;;;1.30;1.10;;;18.90;51.60;;;;;;4992108;28;20603;-69
2022/09/11 03:07:38;;;;;;;1.30;1.10;;;19.20;51.00;;;;;;5001229;28;20488;-68
2022/09/11 03:10:04;;;;;;;1.30;1.10;;;18.80;51.50;;;;;;5000678;28;20660;-68
2022/09/11 03:12:29;;;;;;;1.30;1.20;;;19.00;51.80;;;;;;4991695;28;20204;-68
2022/09/11 03:14:56;;;;;;;1.30;1.20;;;18.90;52.10;;;;;;4982773;28;20432;-68
2022/09/11 03:17:22;;;;;;;1.30;1.10;;;18.70;53.20;;;;;;4991009;28;20216;-68
2022/09/11 03:19:48;;;;;;;1.30;1.20;;;18.50;53.10;;;;;;4994803;28;20433;-68
2022/09/11 03:22:14;;;;;;;1.30;1.00;;;18.00;58.40;;;;;;4995108;28;20424;-69
2022/09/11 03:24:39;;;;;;;1.30;1.17;;;17.90;59.10;;;;;;4995928;28;20449;-69
2022/09/11 03:27:05;;;;;;;1.30;1.10;;;18.00;62.90;;;;;;4993478;28;20225;-69
2022/09/11 03:29:32;;;;;;;1.30;1.10;;;18.00;60.20;;;;;;4998902;28;20200;-69
2022/09/11 03:31:58;;;;;;;1.30;1.20;;;18.20;61.80;;;;;;4998766;28;20425;-69
2022/09/11 03:34:24;;;;;;;1.30;1.20;;;18.60;56.60;;;;;;4987143;28;20436;-69
2022/09/11 03:36:50;;;;;;;1.30;1.20;;;18.80;53.60;;;;;;4995567;28;20566;-69
2022/09/11 03:39:15;;;;;;;1.30;1.10;;;18.80;55.30;;;;;;5001138;28;20430;-69
2022/09/11 03:41:41;;;;;;;3.10;1.90;;;19.00;53.40;;;;;;4996921;28;20191;-69
2022/09/11 03:44:07;;;;;;;1.30;1.20;;;19.10;52.70;;;;;;4997848;28;20203;-69
2022/09/11 03:46:33;;;;;;;1.30;1.10;;;19.00;55.00;;;;;;5002321;28;20233;-68
2022/09/11 03:48:59;;;;;;;1.30;1.20;;;19.00;53.90;;;;;;4995700;28;20175;-69
2022/09/11 03:51:25;;;;;;;1.30;1.10;;;19.00;55.80;;;;;;4990295;28;20531;-68
2022/09/11 03:53:52;;;;;;;1.30;1.07;;;19.00;56.90;;;;;;4994378;28;20476;-69
2022/09/11 03:56:18;;;;;;;1.30;1.10;;;19.20;54.20;;;;;;5000683;28;20426;-68
2022/09/11 03:58:43;;;;;;;1.30;1.10;;;19.30;53.90;;;;;;5000865;28;20959;-69
2022/09/11 04:01:14;;;;;;;1.30;1.10;;;19.30;54.50;;;;;;5000762;28;20539;-69
2022/09/11 04:03:41;;;;;;;1.30;1.10;;;19.20;54.60;;;;;;5006052;28;20430;-68
2022/09/11 04:06:07;;;;;;;1.30;1.10;;;19.20;55.50;;;;;;5002174;28;20445;-68
2022/09/11 04:08:33;;;;;;;1.30;1.10;;;19.10;56.00;;;;;;5012019;28;20813;-69
2022/09/11 04:11:01;;;;;;;1.30;1.10;;;19.20;55.00;;;;;;4996488;28;20423;-69
2022/09/11 04:13:32;;;;;;;1.30;1.10;;;19.30;52.80;;;;;;4987350;28;20192;-69
2022/09/11 04:16:03;;;;;;;1.30;1.20;;;19.00;52.40;;;;;;4994160;28;20794;-69
2022/09/11 04:18:31;;;;;;;1.30;1.10;;;18.90;56.90;;;;;;4993225;28;20462;-68
2022/09/11 04:20:57;;;;;;;1.30;1.20;;;18.80;56.30;;;;;;4986207;28;20415;-68
2022/09/11 04:23:22;;;;;;;1.30;1.17;;;19.00;55.50;;;;;;4986186;28;20433;-68
2022/09/11 04:25:48;;;;;;;1.40;1.20;;;19.20;54.30;;;;;;4989440;28;20511;-68
2022/09/11 04:28:14;;;;;;;1.30;1.20;;;19.30;53.30;;;;;;4993644;28;20379;-69
2022/09/11 04:30:41;;;;;;;1.30;1.10;;;19.20;54.60;;;;;;4994263;28;20848;-68
2022/09/11 04:33:07;;;;;;;1.30;1.20;;;19.10;56.00;;;;;;4998646;28;20426;-68
2022/09/11 04:35:36;;;;;;;1.30;1.20;;;18.70;55.30;;;;;;4995481;28;20510;-68
2022/09/11 04:38:02;;;;;;;1.30;1.20;;;18.70;58.70;;;;;;4991827;28;20523;-69
2022/09/11 04:40:27;;;;;;;1.30;1.20;;;19.00;55.60;;;;;;5002795;28;20931;-68
2022/09/11 04:42:53;;;;;;;1.30;1.07;;;19.20;53.60;;;;;;4993104;28;20542;-68
2022/09/11 04:45:19;;;;;;;1.30;1.20;;;19.30;53.30;;;;;;4994465;28;20771;-69
2022/09/11 04:47:44;;;;;;;1.30;1.10;;;19.30;53.50;;;;;;4995767;28;20216;-68
2022/09/11 04:50:10;;;;;;;1.30;1.20;;;19.10;54.50;;;;;;5002550;28;20690;-68
2022/09/11 04:52:35;;;;;;;1.30;1.20;;;19.00;53.60;;;;;;4988821;28;20232;-68
2022/09/11 04:55:01;;;;;;;1.30;1.20;;;18.80;56.80;;;;;;5002360;28;20205;-68
2022/09/11 04:57:30;;;;;;;1.30;1.20;;;18.80;56.20;;;;;;4998309;28;20228;-69
2022/09/11 04:59:57;;;;;;;1.30;1.17;;;19.00;54.90;;;;;;4993375;28;20688;-68
2022/09/11 05:02:22;;;;;;;1.30;1.17;;;19.10;53.40;;;;;;4995805;28;20437;-68
2022/09/11 05:04:48;;;;;;;1.30;1.00;;;18.90;55.30;;;;;;5003924;28;20465;-68
2022/09/11 05:07:14;;;;;;;1.30;1.20;;;19.00;55.90;;;;;;5003642;28;20202;-68
2022/09/11 05:09:39;;;;;;;1.30;1.20;;;19.20;54.50;;;;;;5005036;28;20188;-68
2022/09/11 05:12:05;;;;;;;1.40;1.27;;;19.20;53.10;;;;;;4991429;28;20194;-68
2022/09/11 05:14:31;;;;;;;1.30;1.10;;;19.30;53.10;;;;;;4993598;28;20183;-68
2022/09/11 05:16:57;;;;;;;1.30;1.10;;;19.30;53.60;;;;;;4992585;28;20245;-68
2022/09/11 05:19:24;;;;;;;1.30;1.20;;;19.10;55.70;;;;;;5000990;28;20972;-68
2022/09/11 05:21:50;;;;;;;1.30;1.10;;;19.20;54.30;;;;;;4993341;28;20826;-68
2022/09/11 05:24:16;;;;;;;1.40;1.30;;;18.90;53.90;;;;;;4992322;28;20544;-68
2022/09/11 05:26:41;;;;;;;1.30;1.20;;;18.60;57.70;;;;;;4994261;28;20455;-68
2022/09/11 05:29:13;;;;;;;1.30;1.10;;;18.70;54.80;;;;;;4996480;28;20523;-68
2022/09/11 05:31:39;;;;;;;1.30;1.10;;;18.90;56.90;;;;;;4986383;28;20436;-68
2022/09/11 05:34:05;;;;;;;1.30;1.10;;;19.10;55.70;;;;;;4991843;28;20504;-68
2022/09/11 05:36:32;;;;;;;1.30;1.20;;;19.20;55.00;;;;;;4988266;28;20180;-68
2022/09/11 05:38:58;;;;;;;1.30;1.20;;;19.10;55.10;;;;;;4993049;28;20455;-68
2022/09/11 05:41:24;;;;;;;1.30;1.10;;;19.10;54.80;;;;;;4984619;28;20477;-68
2022/09/11 05:43:50;;;;;;;1.30;1.20;;;19.30;54.60;;;;;;4989567;28;20436;-68
2022/09/11 05:46:18;;;;;;;1.30;1.20;;;19.20;54.20;;;;;;4989031;28;20226;-69
2022/09/11 05:48:44;;;;;;;1.30;1.10;;;19.00;53.80;;;;;;4995433;28;20528;-68
2022/09/11 05:51:15;;;;;;;1.40;1.30;;;18.60;55.70;;;;;;4997643;28;20433;-68
2022/09/11 05:53:41;;;;;;;1.30;1.13;;;18.70;56.90;;;;;;4993508;28;20445;-68
2022/09/11 05:56:16;;;;;;;1.30;1.20;;;19.10;57.00;;;;;;5001963;28;20512;-68
2022/09/11 05:58:46;;;;;;;1.30;1.10;;;19.30;54.50;;;;;;4984664;28;20453;-68
2022/09/11 06:01:17;;;;;;;1.30;1.10;;;19.10;55.70;;;;;;4985240;28;20927;-68
2022/09/11 06:03:43;;;;;;;1.30;1.10;;;19.20;55.50;;;;;;4991787;28;20413;-68
2022/09/11 06:06:10;;;;;;;1.30;1.10;;;19.60;52.40;;;;;;5005455;28;20470;-68
2022/09/11 06:08:38;;;;;;;1.30;1.20;;;19.60;52.80;;;;;;4996127;28;20201;-68
2022/09/11 06:11:08;;;;;;;1.30;1.10;;;19.60;54.20;;;;;;5005548;28;20428;-68
2022/09/11 06:13:37;;;;;;;1.30;1.20;;;19.40;53.80;;;;;;4998376;28;20449;-68
2022/09/11 06:16:04;;;;;;;1.30;1.20;;;19.50;53.50;;;;;;4992487;28;20438;-68
2022/09/11 06:18:31;;;;;;;1.30;1.20;;;19.10;53.20;;;;;;4999186;28;20464;-68
2022/09/11 06:21:01;;;;;;;1.30;1.10;;;19.00;56.90;;;;;;4991500;28;20426;-68
2022/09/11 06:23:27;;;;;;;1.53;1.40;;;19.30;55.40;;;;;;4984485;28;20424;-69
2022/09/11 06:26:01;;;;;;;1.30;1.20;;;19.50;55.00;;;;;;4986633;28;20543;-68
2022/09/11 06:28:26;;;;;;;1.30;1.13;;;19.30;52.90;;;;;;4993681;28;20492;-68
2022/09/11 06:30:52;;;;;;;1.30;1.20;;;19.30;54.80;;;;;;4983540;28;20444;-68
2022/09/11 06:33:19;;;;;;;1.30;1.20;;;19.50;53.60;;;;;;4991030;28;20236;-69
2022/09/11 06:35:58;;;;;;;1.30;1.20;;;19.70;52.50;;;;;;4995654;28;20655;-68
2022/09/11 06:38:24;;;;;;;1.30;1.10;;;19.50;52.80;;;;;;4985696;28;20458;-68
2022/09/11 06:40:50;;;;;;;1.30;1.10;;;19.50;53.10;;;;;;4990281;28;20426;-68
2022/09/11 06:43:16;;;;;;;1.30;1.20;;;19.60;51.90;;;;;;4992977;28;20798;-68
2022/09/11 06:45:41;;;;;;;1.30;1.20;;;19.60;53.20;;;;;;4988378;28;20828;-68
2022/09/11 06:48:07;;;;;;;1.30;1.10;;;19.40;54.50;;;;;;4990442;28;20225;-68
2022/09/11 06:50:39;;;;;;;1.30;1.20;;;19.20;54.90;;;;;;4997046;28;20213;-69
2022/09/11 06:53:09;;;;;;;1.30;1.10;;;18.80;56.80;;;;;;4991955;28;20174;-68
2022/09/11 06:55:35;;;;;;;1.30;1.20;;;18.70;56.10;;;;;;4991889;28;20798;-68
2022/09/11 06:58:03;;;;;;;1.30;1.10;;;18.30;60.10;;;;;;5000807;28;20467;-68
2022/09/11 07:00:30;;;;;;;1.30;1.27;;;18.00;62.20;;;;;;5000215;28;20270;-68
2022/09/11 07:02:55;;;;;;;1.30;1.20;;;18.00;63.40;;;;;;5003627;28;20507;-71
2022/09/11 07:05:22;;;;;;;1.30;1.20;;;18.20;61.70;;;;;;4991612;28;20460;-68
2022/09/11 07:07:49;;;;;;;1.30;1.00;;;18.60;61.40;;;;;;4990504;28;20197;-68
2022/09/11 07:10:15;;;;;;;1.30;1.10;;;18.40;61.10;;;;;;4995360;28;20431;-68
2022/09/11 07:12:41;;;;;;;1.30;1.20;;;18.60;60.40;;;;;;4994637;28;20553;-68
2022/09/11 07:15:07;;;;;;;1.30;1.20;;;18.50;60.10;;;;;;5006582;28;20464;-68
2022/09/11 07:17:33;;;;;;;1.30;1.20;;;18.20;63.70;;;;;;4982206;28;20206;-68
2022/09/11 07:19:59;;;;;;;1.30;1.20;;;18.80;63.70;;;;;;4991825;28;20422;-72
2022/09/11 07:22:25;;;;;;;1.30;1.20;;;19.00;58.90;;;;;;4990503;28;20426;-71
2022/09/11 07:24:54;;;;;;;1.30;1.20;;;19.00;58.20;;;;;;4987466;28;20190;-71
2022/09/11 07:27:20;;;;;;;1.30;1.27;;;18.70;60.40;;;;;;4990986;28;20261;-71
2022/09/11 07:29:46;;;;;;;1.30;1.10;;;19.00;59.10;;;;;;4988732;28;20430;-71
2022/09/11 07:32:12;;;;;;;1.30;1.20;;;19.20;57.20;;;;;;4991153;28;20497;-72
2022/09/11 07:34:38;;;;;;;1.30;1.10;;;19.50;56.90;;;;;;4984331;28;20654;-71
2022/09/11 07:37:04;;;;;;;1.30;1.20;;;19.60;54.60;;;;;;4992560;28;20486;-71
2022/09/11 07:39:29;;;;;;;1.30;1.20;;;19.80;53.60;;;;;;4995156;28;20197;-71
2022/09/11 07:41:55;;;;;;;1.30;1.30;;;19.70;54.40;;;;;;4990529;28;20782;-69
2022/09/11 07:44:22;;;;;;;1.30;1.10;;;19.50;57.40;;;;;;4989573;28;20199;-68
2022/09/11 07:46:48;;;;;;;1.30;1.10;;;19.40;55.30;;;;;;4991568;28;20426;-68
2022/09/11 07:49:14;;;;;;;1.30;1.20;;;19.20;59.20;;;;;;4993460;28;20432;-68
2022/09/11 07:51:41;;;;;;;1.30;1.20;;;19.30;57.60;;;;;;4992988;28;20460;-68
2022/09/11 07:54:08;;;;;;;1.30;1.30;;;19.60;55.70;;;;;;4990924;28;20420;-68
2022/09/11 07:56:35;;;;;;;1.30;1.20;;;20.10;54.20;;;;;;4983207;28;20427;-68
2022/09/11 07:59:01;;;;;;;1.30;1.20;;;19.40;56.40;;;;;;4983075;28;20927;-68
2022/09/11 08:01:30;;;;;;;1.30;1.30;;;19.20;56.40;;;;;;4990937;28;20423;-68
2022/09/11 08:03:58;;;;;;;1.30;1.30;;;19.50;56.70;;;;;;4990201;28;20431;-68
2022/09/11 08:06:28;;;;;;;1.30;1.30;;;19.80;56.10;;;;;;4991869;28;20440;-68
2022/09/11 08:08:56;;;;;;;1.30;1.13;;;20.30;55.00;;;;;;5015087;22;20496;-69
2022/09/11 08:11:22;;;;;;;1.30;1.10;;;20.00;54.60;;;;;;5004940;28;20844;-69
2022/09/11 08:13:50;;;;;;;1.30;1.20;;;19.50;54.30;;;;;;5004787;28;20463;-69
2022/09/11 08:16:18;;;;;;;1.30;1.20;;;19.60;59.50;;;;;;5007611;28;20484;-69
2022/09/11 08:18:44;;;;;;;1.30;1.20;;;19.50;57.40;;;;;;5006623;28;20421;-69
2022/09/11 08:21:10;;;;;;;1.30;1.13;;;19.60;56.50;;;;;;5010217;28;20427;-69
2022/09/11 08:23:39;;;;;;;1.30;1.20;;;20.00;56.40;;;;;;4994957;28;20431;-69
2022/09/11 08:26:15;;;;;;;1.30;1.10;;;20.30;54.50;;;;;;5009434;28;20561;-69
2022/09/11 08:28:41;;;;;;;1.30;1.30;;;20.60;52.20;;;;;;5011563;28;20428;-70
2022/09/11 08:31:08;;;;;;;1.30;1.30;;;20.80;49.70;;;;;;5012588;28;20934;-69
2022/09/11 08:33:34;;;;;;;1.30;1.20;;;20.70;50.50;;;;;;5012218;28;20437;-69
2022/09/11 08:36:02;;;;;;;1.30;1.20;;;20.90;50.00;;;;;;5004250;28;20473;-69
2022/09/11 08:38:29;;;;;;;1.30;1.10;;;20.60;49.60;;;;;;5013972;28;20187;-69
2022/09/11 08:41:08;;;;;;;1.30;1.20;;;20.20;51.40;;;;;;5010904;28;20490;-69
2022/09/11 08:43:37;;;;;;;1.30;1.20;;;20.40;51.70;;;;;;5012268;28;20439;-69
2022/09/11 08:46:08;;;;;;;1.30;1.20;;;20.70;49.40;;;;;;5010885;28;20899;-69
2022/09/11 08:49:02;;;;;;;1.30;1.20;;;21.10;47.80;;;;;;5013729;28;20436;-69
2022/09/11 08:51:30;;;;;;;1.30;1.30;;;21.10;47.50;;;;;;5005465;28;20434;-68
2022/09/11 08:53:57;;;;;;;1.30;1.20;;;21.40;47.90;;;;;;5009024;28;20437;-69
2022/09/11 08:56:28;;;;;;;1.30;1.20;;;21.70;46.40;;;;;;5010074;28;20439;-68
2022/09/11 08:59:14;;;;;;;1.30;1.20;;;21.90;46.00;;;;;;5012313;28;20456;-68
2022/09/11 09:01:57;;;;;;;1.30;1.10;;;22.00;44.60;;;;;;4992976;28;20427;-69
2022/09/11 09:04:42;;;;;;;1.30;1.10;;;21.80;44.90;;;;;;5007441;28;20491;-69
2022/09/11 09:07:13;;;;;;;1.30;1.20;;;21.50;43.10;;;;;;5024049;28;20447;-68
2022/09/11 09:09:50;;;;;;;1.30;1.10;;;20.70;49.30;;;;;;5003907;28;20467;-70
2022/09/11 09:12:21;;;;;;;1.30;1.10;;;21.10;49.10;;;;;;5009394;28;20808;-68
2022/09/11 09:15:16;;;;;;;1.30;1.07;;;20.80;48.30;;;;;;5006281;28;20449;-68
2022/09/11 09:17:58;;;;;;;1.30;1.20;;;21.00;47.70;;;;;;5008010;28;20450;-68
2022/09/11 09:20:41;;;;;;;1.30;1.17;;;21.50;46.60;;;;;;5004298;28;20461;-68
2022/09/11 09:23:36;;;;;;;1.30;1.10;;;21.90;44.50;;;;;;5009905;28;20528;-68
2022/09/11 09:26:02;;;;;;;1.30;1.20;;;21.20;45.40;;;;;;5007242;28;20550;-68
2022/09/11 09:28:33;;;;;;;1.30;1.20;;;21.60;45.00;;;;;;5011716;28;20549;-68
2022/09/11 09:31:06;;;;;;;1.30;1.20;;;22.20;41.80;;;;;;5008449;28;20183;-68
2022/09/11 09:33:41;;;;;;;1.30;1.20;;;22.60;42.10;;;;;;5009264;28;20424;-68
2022/09/11 09:36:28;;;;;;;1.30;1.20;;;22.50;40.00;;;;;;5005951;28;21521;-68
2022/09/11 09:38:54;;;;;;;1.30;1.30;;;22.40;42.50;;;;;;5005609;28;20514;-69
2022/09/11 09:41:49;;;;;;;1.30;1.10;;;22.50;40.80;;;;;;5008333;28;20502;-69
2022/09/11 09:44:45;;;;;;;1.30;1.30;;;21.60;41.90;;;;;;5008426;28;20534;-67
2022/09/11 09:47:13;;;;;;;1.30;1.20;;;20.70;47.00;;;;;;5007276;28;20472;-69
2022/09/11 09:49:40;;;;;;;1.30;1.20;;;21.20;43.70;;;;;;5003916;28;20448;-69
2022/09/11 09:52:24;;;;;;;1.30;1.20;;;21.30;42.90;;;;;;5005840;28;20436;-68
2022/09/11 09:55:01;;;;;;;1.30;1.20;;;21.50;43.60;;;;;;5003858;28;20502;-67
2022/09/11 09:57:38;;;;;;;1.30;1.20;;;21.80;43.30;;;;;;5006934;28;20434;-69
2022/09/11 10:00:13;;;;;;;1.30;1.20;;;21.80;43.30;;;;;;5007607;28;20456;-68
2022/09/11 10:02:44;;;;;;;1.30;1.10;;;21.90;42.80;;;;;;5010318;28;20462;-68
2022/09/11 10:05:20;;;;;;;1.30;1.20;;;21.30;45.60;;;;;;5003968;28;20506;-68
2022/09/11 10:08:02;;;;;;;1.30;1.20;;;20.70;47.10;;;;;;4996170;28;20420;-68
2022/09/11 10:10:30;;;;;;;1.30;1.10;;;20.90;48.80;;;;;;5004719;28;20527;-69
2022/09/11 10:12:59;;;;;;;1.30;1.20;;;21.40;45.50;;;;;;5000405;28;20913;-69
2022/09/11 10:15:26;;;;;;;1.30;1.13;;;21.80;44.10;;;;;;5000552;28;20441;-68
2022/09/11 10:17:52;;;;;;;1.30;1.20;;;21.80;43.60;;;;;;5001301;28;20435;-68
2022/09/11 10:20:17;;;;;;;1.50;1.30;;;22.00;47.20;;;;;;5012108;28;20830;-68
2022/09/11 10:22:44;;;;;;;1.30;1.20;;;22.50;47.40;;;;;;5003951;28;20557;-69
2022/09/11 10:25:18;;;;;;;1.30;1.10;;;22.80;42.00;;;;;;5000760;28;20294;-69
2022/09/11 10:27:45;;;;;;;1.30;1.20;;;23.00;41.50;;;;;;5007358;28;20437;-69
2022/09/11 10:30:34;;;;;;;1.30;1.10;;;22.60;40.10;;;;;;5003106;28;20449;-68
2022/09/11 10:33:21;;;;;;;1.30;1.20;;;22.80;40.10;;;;;;5001673;28;20451;-68
2022/09/11 10:35:54;;;;;;;1.30;1.20;;;22.90;40.20;;;;;;4999592;28;20437;-68
2022/09/11 10:38:30;;;;;;;1.30;1.20;;;21.70;40.60;;;;;;5000132;28;20475;-68
2022/09/11 10:41:04;;;;;;;1.30;1.10;;;22.00;40.80;;;;;;5000072;28;20458;-69
2022/09/11 10:43:49;;;;;;;1.30;1.20;;;21.50;42.00;;;;;;5011238;28;20432;-68
2022/09/11 10:46:17;;;;;;;1.30;1.30;;;21.30;44.80;;;;;;5011018;28;20461;-68
2022/09/11 10:48:54;;;;;;;1.30;1.30;;;20.80;43.30;;;;;;5003378;28;20423;-68
2022/09/11 10:51:21;;;;;;;1.30;1.30;;;20.10;47.70;;;;;;5007946;28;20434;-69
2022/09/11 10:54:16;;;;;;;1.30;1.20;;;20.00;48.70;;;;;;5005596;28;20428;-68
2022/09/11 10:57:04;;;;;;;1.30;1.23;;;20.00;49.50;;;;;;4983989;28;20495;-70
2022/09/11 11:00:02;;;;;;;1.30;1.20;;;20.70;48.40;;;;;;4975713;28;20923;-68
2022/09/11 11:02:32;;;;;;;1.30;1.20;;;21.30;45.40;;;;;;5005954;28;20828;-68
2022/09/11 11:05:03;;;;;;;1.30;1.20;;;22.30;43.80;;;;;;5002694;28;20498;-69
2022/09/11 11:07:44;;;;;;;1.30;1.27;;;22.70;40.30;;;;;;5002490;28;20431;-68
2022/09/11 11:10:26;;;;;;;1.30;1.30;;;23.20;37.80;;;;;;5002764;28;20454;-70
2022/09/11 11:13:16;;;;;;;1.30;1.17;;;22.90;37.90;;;;;;5004764;28;20416;-69
2022/09/11 11:16:13;;;;;;;1.30;1.20;;;23.30;36.40;;;;;;4999628;28;20418;-69
2022/09/11 11:18:47;;;;;;;1.30;1.20;;;23.20;36.30;;;;;;5004966;28;20425;-69
2022/09/11 11:21:22;;;;;;;1.30;1.10;;;23.80;35.40;;;;;;5002867;28;20463;-69
2022/09/11 11:24:27;;;;;;;1.30;1.30;;;22.80;37.40;;;;;;5003056;28;20450;-69
2022/09/11 11:27:21;;;;;;;1.30;1.10;;;23.50;37.00;;;;;;5004550;28;20420;-68
2022/09/11 11:30:16;;;;;;;1.30;1.20;;;23.50;33.40;;;;;;4999375;28;20472;-70
2022/09/11 11:33:22;;;;;;;1.30;1.20;;;23.40;35.00;;;;;;5009922;28;20419;-70
2022/09/11 11:36:07;;;;;;;1.30;1.20;;;23.70;36.70;;;;;;4970915;28;20437;-68
2022/09/11 11:38:59;;;;;;;1.30;1.20;;;22.30;36.70;;;;;;5008827;28;20444;-69
2022/09/11 11:41:43;;;;;;;1.30;1.17;;;23.10;38.00;;;;;;5014211;28;20428;-70
2022/09/11 11:44:15;;;;;;;1.30;1.20;;;24.60;32.00;;;;;;5006686;28;20514;-69
2022/09/11 11:46:51;;;;;;;1.30;1.20;;;25.90;31.40;;;;;;5006249;28;20471;-69
2022/09/11 11:49:30;;;;;;;1.30;1.20;;;25.60;31.00;;;;;;5013751;28;20450;-69
2022/09/11 11:52:08;;;;;;;1.30;1.10;;;27.40;29.50;;;;;;5006092;28;20436;-69
2022/09/11 11:54:48;;;;;;;1.30;1.10;;;28.50;26.50;;;;;;5011661;28;20510;-69
2022/09/11 11:57:19;;;;;;;1.30;1.10;;;28.10;25.70;;;;;;5008851;28;20916;-69
2022/09/11 11:59:47;;;;;;;1.30;1.00;;;28.00;25.10;;;;;;5008943;28;20451;-69
2022/09/11 12:02:55;;;;;;;1.30;1.00;;;26.40;28.10;;;;;;5011149;28;21712;-68
2022/09/11 12:05:27;;;;;;;1.27;1.10;;;26.40;28.20;;;;;;4971011;28;20503;-69
2022/09/11 12:07:52;;;;;;;1.30;1.10;;;26.30;26.20;;;;;;4968152;28;20433;-68
2022/09/11 12:10:21;;;;;;;1.30;1.00;;;25.70;29.30;;;;;;4969630;28;20934;-69
2022/09/11 12:12:52;;;;;;;1.30;1.10;;;25.60;28.50;;;;;;4969621;28;20605;-69
2022/09/11 12:15:21;;;;;;;1.30;1.10;;;25.90;28.30;;;;;;4969647;28;20437;-69
2022/09/11 12:18:00;;;;;;;1.30;1.13;;;25.10;28.70;;;;;;4955817;28;20437;-68
2022/09/11 12:20:36;;;;;;;1.30;1.10;;;24.00;29.60;;;;;;4968935;28;20461;-68
2022/09/11 12:23:03;;;;;;;1.30;1.20;;;24.00;30.40;;;;;;4968320;28;20449;-69
2022/09/11 12:25:31;;;;;;;1.30;1.10;;;24.10;29.80;;;;;;4969230;28;20468;-68
2022/09/11 12:28:23;;;;;;;1.30;1.10;;;23.60;30.70;;;;;;4967258;28;20472;-69
2022/09/11 12:31:03;;;;;;;1.30;1.10;;;23.60;31.10;;;;;;4969144;28;20464;-68
2022/09/11 12:33:46;;;;;;;1.30;1.20;;;23.90;30.40;;;;;;4966148;28;20428;-71
2022/09/11 12:36:39;;;;;;;1.30;1.30;;;23.20;30.60;;;;;;4992680;28;20533;-69
2022/09/11 12:39:27;;;;;;;1.30;1.23;;;22.40;32.80;;;;;;5007333;28;20549;-69
2022/09/11 12:42:12;;;;;;;1.30;1.20;;;23.20;31.10;;;;;;5005321;28;20802;-71
2022/09/11 12:44:47;;;;;;;1.30;1.20;;;24.00;31.70;;;;;;4996951;28;20527;-72
2022/09/11 12:47:23;;;;;;;1.30;1.30;;;24.30;29.80;;;;;;5007068;28;20770;-69
2022/09/11 12:50:17;;;;;;;1.30;1.20;;;24.70;29.60;;;;;;5010840;28;20509;-70
2022/09/11 12:53:00;;;;;;;1.30;1.20;;;25.20;28.90;;;;;;5009453;28;20522;-69
2022/09/11 12:55:39;;;;;;;1.30;1.10;;;25.90;28.30;;;;;;5002533;28;20435;-69
2022/09/11 12:58:17;;;;;;;1.30;1.10;;;26.90;27.00;;;;;;5003836;28;20438;-69
2022/09/11 13:00:46;;;;;;;1.30;1.20;;;27.00;24.70;;;;;;5005845;28;20826;-70
2022/09/11 13:03:21;;;;;;;1.30;1.07;;;26.30;25.50;;;;;;5015635;28;20435;-70
2022/09/11 13:06:07;;;;;;;1.40;1.20;;;26.50;27.80;;;;;;5012891;28;20459;-71
2022/09/11 13:08:37;;;;;;;1.30;1.10;;;27.50;25.20;;;;;;5005274;28;20438;-70
2022/09/11 13:11:34;;;;;;;1.30;1.10;;;27.30;24.10;;;;;;5012850;28;20814;-69
2022/09/11 13:14:00;;;;;;;1.30;1.20;;;26.20;25.70;;;;;;5012583;28;20450;-70